createdAt,value
2022-12-09T00:01:55.654Z,7.11
2022-12-09T00:04:24.258Z,7.11
2022-12-09T00:06:54.031Z,7.14
2022-12-09T00:09:22.184Z,7.14
2022-12-09T00:11:52.759Z,7.06
2022-12-09T00:14:20.966Z,6.99
2022-12-09T00:16:49.444Z,7.04
2022-12-09T00:19:17.827Z,7.10
2022-12-09T00:21:45.885Z,7.10
2022-12-09T00:24:15.866Z,7.03
2022-12-09T00:26:44.698Z,7.00
2022-12-09T00:29:13.731Z,7.03
2022-12-09T00:31:41.948Z,7.05
2022-12-09T00:34:13.512Z,7.20
2022-12-09T00:36:42.330Z,7.25
2022-12-09T00:39:13.386Z,7.17
2022-12-09T00:41:43.151Z,7.25
2022-12-09T00:44:11.977Z,7.26
2022-12-09T00:46:40.073Z,7.15
2022-12-09T00:49:08.561Z,7.07
2022-12-09T00:51:36.865Z,7.11
2022-12-09T00:54:05.355Z,7.10
2022-12-09T00:56:33.770Z,7.01
2022-12-09T00:59:03.413Z,6.86
2022-12-09T01:01:31.697Z,6.85
2022-12-09T01:03:59.983Z,6.92
2022-12-09T01:06:28.327Z,6.91
2022-12-09T01:08:56.711Z,7.00
2022-12-09T01:11:26.599Z,6.98
2022-12-09T01:13:57.940Z,6.95
2022-12-09T01:16:29.827Z,6.96
2022-12-09T01:19:00.582Z,7.04
2022-12-09T01:21:29.413Z,7.03
2022-12-09T01:23:58.106Z,7.21
2022-12-09T01:26:26.498Z,7.08
2022-12-09T01:28:55.708Z,7.07
2022-12-09T01:31:25.853Z,7.05
2022-12-09T01:33:56.016Z,7.22
2022-12-09T01:36:26.848Z,7.25
2022-12-09T01:38:56.083Z,7.20
2022-12-09T01:41:25.071Z,7.15
2022-12-09T01:44:15.472Z,7.14
2022-12-09T01:46:44.364Z,7.05
2022-12-09T01:49:18.357Z,7.05
2022-12-09T01:51:53.303Z,7.07
2022-12-09T01:54:22.027Z,6.96
2022-12-09T01:56:50.661Z,6.93
2022-12-09T01:59:19.300Z,6.93
2022-12-09T02:01:51.922Z,7.03
2022-12-09T02:04:21.448Z,7.10
2022-12-09T02:06:50.144Z,7.09
2022-12-09T02:09:18.688Z,7.05
2022-12-09T02:11:59.563Z,7.04
2022-12-09T02:14:36.829Z,7.20
2022-12-09T02:17:22.790Z,7.34
2022-12-09T02:20:01.884Z,7.23
2022-12-09T02:22:34.642Z,7.30
2022-12-09T02:25:16.923Z,7.35
2022-12-09T02:27:49.721Z,7.20
2022-12-09T02:30:20.607Z,7.13
2022-12-09T02:33:07.205Z,7.21
2022-12-09T02:35:43.488Z,7.19
2022-12-09T02:38:17.218Z,7.16
2022-12-09T02:40:51.698Z,7.08
2022-12-09T02:43:25.450Z,7.07
2022-12-09T02:45:56.278Z,7.02
2022-12-09T02:48:29.086Z,6.95
2022-12-09T02:51:00.388Z,6.95
2022-12-09T02:53:29.156Z,6.88
2022-12-09T02:55:58.024Z,6.92
2022-12-09T02:58:26.097Z,7.00
2022-12-09T03:00:57.401Z,6.96
2022-12-09T03:03:26.545Z,6.92
2022-12-09T03:06:02.294Z,6.90
2022-12-09T03:08:38.110Z,6.96
2022-12-09T03:11:09.891Z,7.05
2022-12-09T03:13:52.511Z,7.05
2022-12-09T03:16:26.992Z,7.11
2022-12-09T03:19:00.784Z,7.04
2022-12-09T03:21:34.087Z,7.10
2022-12-09T03:24:03.811Z,7.07
2022-12-09T03:26:34.591Z,7.03
2022-12-09T03:29:08.104Z,7.17
2022-12-09T03:31:38.274Z,7.22
2022-12-09T03:34:11.536Z,7.19
2022-12-09T03:36:47.946Z,7.29
2022-12-09T03:39:21.212Z,7.29
2022-12-09T03:41:53.229Z,7.13
2022-12-09T03:44:27.109Z,7.11
2022-12-09T03:46:55.759Z,7.02
2022-12-09T03:49:24.218Z,7.13
2022-12-09T03:51:58.524Z,7.19
2022-12-09T03:54:30.956Z,7.21
2022-12-09T03:57:00.508Z,7.27
2022-12-09T03:59:32.326Z,7.11
2022-12-09T04:02:00.967Z,7.08
2022-12-09T04:04:29.624Z,7.08
2022-12-09T04:06:59.881Z,6.98
2022-12-09T04:09:28.033Z,6.93
2022-12-09T04:11:56.176Z,6.91
2022-12-09T04:14:24.290Z,6.85
2022-12-09T04:16:52.466Z,6.91
2022-12-09T04:19:20.983Z,6.89
2022-12-09T04:21:49.431Z,6.91
2022-12-09T04:24:19.036Z,7.06
2022-12-09T04:26:47.553Z,7.25
2022-12-09T04:29:16.014Z,7.12
2022-12-09T04:31:44.606Z,7.22
2022-12-09T04:34:12.807Z,7.10
2022-12-09T04:36:41.717Z,7.08
2022-12-09T04:39:10.147Z,7.16
2022-12-09T04:41:39.746Z,7.07
2022-12-09T04:44:08.395Z,7.07
2022-12-09T04:46:36.705Z,6.96
2022-12-09T04:49:05.510Z,6.97
2022-12-09T04:51:39.642Z,6.93
2022-12-09T04:54:09.118Z,6.87
2022-12-09T04:56:37.575Z,6.86
2022-12-09T04:59:07.497Z,6.85
2022-12-09T05:01:36.413Z,6.89
2022-12-09T05:04:05.453Z,6.71
2022-12-09T05:06:34.400Z,6.63
2022-12-09T05:09:02.909Z,6.74
2022-12-09T05:11:31.301Z,6.73
2022-12-09T05:13:59.784Z,6.86
2022-12-09T05:16:29.748Z,6.81
2022-12-09T05:19:00.676Z,6.85
2022-12-09T05:21:29.300Z,6.96
2022-12-09T05:23:57.708Z,7.04
2022-12-09T05:26:25.892Z,7.08
2022-12-09T05:28:54.303Z,6.98
2022-12-09T05:31:24.016Z,6.87
2022-12-09T05:33:54.185Z,6.82
2022-12-09T05:36:25.515Z,6.84
2022-12-09T05:38:55.314Z,6.78
2022-12-09T05:41:25.361Z,6.73
2022-12-09T05:43:54.290Z,6.74
2022-12-09T05:46:23.495Z,6.88
2022-12-09T05:48:53.324Z,7.02
2022-12-09T05:51:25.452Z,6.89
2022-12-09T05:53:54.771Z,6.80
2022-12-09T05:56:25.478Z,6.75
2022-12-09T05:58:54.655Z,6.72
2022-12-09T06:01:24.442Z,6.80
2022-12-09T06:03:55.416Z,6.92
2022-12-09T06:06:28.098Z,7.07
2022-12-09T06:08:59.691Z,7.11
2022-12-09T06:11:29.124Z,7.15
2022-12-09T06:13:57.731Z,7.07
2022-12-09T06:16:26.559Z,7.04
2022-12-09T06:18:56.985Z,7.03
2022-12-09T06:21:25.513Z,7.00
2022-12-09T06:23:54.290Z,7.05
2022-12-09T06:26:24.700Z,7.06
2022-12-09T06:28:53.740Z,6.99
2022-12-09T06:31:23.116Z,7.12
2022-12-09T06:33:57.121Z,7.11
2022-12-09T06:36:29.286Z,7.07
2022-12-09T06:39:07.701Z,7.04
2022-12-09T06:41:37.958Z,6.91
2022-12-09T06:44:06.298Z,6.92
2022-12-09T06:46:34.541Z,6.93
2022-12-09T06:49:02.942Z,7.15
2022-12-09T06:51:33.296Z,7.12
2022-12-09T06:54:01.702Z,7.09
2022-12-09T06:56:32.653Z,7.04
2022-12-09T06:59:01.319Z,7.12
2022-12-09T07:01:30.050Z,7.06
2022-12-09T07:03:58.862Z,6.98
2022-12-09T07:06:30.988Z,7.01
2022-12-09T07:09:07.285Z,7.09
2022-12-09T07:11:36.120Z,7.18
2022-12-09T07:14:05.583Z,7.33
2022-12-09T07:16:35.126Z,7.27
2022-12-09T07:19:04.411Z,7.35
2022-12-09T07:21:33.218Z,7.35
2022-12-09T07:24:04.616Z,7.34
2022-12-09T07:26:33.720Z,7.27
2022-12-09T07:29:03.089Z,7.40
2022-12-09T07:31:31.817Z,7.64
2022-12-09T07:34:01.001Z,7.52
2022-12-09T07:36:32.221Z,7.41
2022-12-09T07:39:02.420Z,7.48
2022-12-09T07:41:32.404Z,7.40
2022-12-09T07:44:01.279Z,7.32
2022-12-09T07:46:29.923Z,7.46
2022-12-09T07:48:59.568Z,7.53
2022-12-09T07:51:29.576Z,7.44
2022-12-09T07:53:58.670Z,7.36
2022-12-09T07:56:28.449Z,7.43
2022-12-09T07:58:58.879Z,7.63
2022-12-09T08:01:31.024Z,7.47
2022-12-09T08:03:59.786Z,7.57
2022-12-09T08:06:30.353Z,7.68
2022-12-09T08:09:00.729Z,7.65
2022-12-09T08:11:31.863Z,7.52
2022-12-09T08:14:08.997Z,7.48
2022-12-09T08:16:39.539Z,7.56
2022-12-09T08:19:08.405Z,7.79
2022-12-09T08:21:37.568Z,7.76
2022-12-09T08:24:07.740Z,7.81
2022-12-09T08:26:39.498Z,7.75
2022-12-09T08:29:11.864Z,7.52
2022-12-09T08:31:42.835Z,7.67
2022-12-09T08:34:12.180Z,7.84
2022-12-09T08:36:41.038Z,7.80
2022-12-09T08:39:10.087Z,7.75
2022-12-09T08:41:40.164Z,7.67
2022-12-09T08:44:12.231Z,7.79
2022-12-09T08:46:43.650Z,7.77
2022-12-09T08:49:18.909Z,7.82
2022-12-09T08:51:48.434Z,7.66
2022-12-09T08:54:16.772Z,7.68
2022-12-09T08:56:46.834Z,7.96
2022-12-09T08:59:17.141Z,8.10
2022-12-09T09:01:45.810Z,7.96
2022-12-09T09:04:17.581Z,8.05
2022-12-09T09:06:50.253Z,8.06
2022-12-09T09:09:20.287Z,7.82
2022-12-09T09:11:49.547Z,7.73
2022-12-09T09:14:19.339Z,7.73
2022-12-09T09:16:48.049Z,7.83
2022-12-09T09:19:19.538Z,7.95
2022-12-09T09:21:48.144Z,8.24
2022-12-09T09:24:19.226Z,8.21
2022-12-09T09:26:49.314Z,8.14
2022-12-09T09:29:21.266Z,8.24
2022-12-09T09:31:54.585Z,8.40
2022-12-09T09:34:24.217Z,8.40
2022-12-09T09:36:52.925Z,8.45
2022-12-09T09:39:22.285Z,8.37
2022-12-09T09:41:54.504Z,8.18
2022-12-09T09:44:30.596Z,8.06
2022-12-09T09:46:59.698Z,8.23
2022-12-09T09:49:36.474Z,8.43
2022-12-09T09:52:09.486Z,8.58
2022-12-09T09:54:37.945Z,8.48
2022-12-09T09:57:14.867Z,8.53
2022-12-09T09:59:55.923Z,8.67
2022-12-09T10:02:40.999Z,8.56
2022-12-09T10:05:24.087Z,8.67
2022-12-09T10:07:56.430Z,8.76
2022-12-09T10:10:37.401Z,8.71
2022-12-09T10:13:18.729Z,8.76
2022-12-09T10:16:00.696Z,8.72
2022-12-09T10:18:34.483Z,8.93
2022-12-09T10:21:03.293Z,8.91
2022-12-09T10:23:33.079Z,8.68
2022-12-09T10:26:06.295Z,8.54
2022-12-09T10:28:38.393Z,8.44
2022-12-09T10:31:08.629Z,8.73
2022-12-09T10:33:39.129Z,8.97
2022-12-09T10:36:22.062Z,9.12
2022-12-09T10:38:50.896Z,9.53
2022-12-09T10:41:50.076Z,9.66
2022-12-09T10:44:23.953Z,9.58
2022-12-09T10:47:01.340Z,9.30
2022-12-09T10:49:30.419Z,9.24
2022-12-09T10:52:00.118Z,8.87
2022-12-09T10:54:34.281Z,8.88
2022-12-09T10:57:07.257Z,8.65
2022-12-09T10:59:37.486Z,8.62
2022-12-09T11:02:23.830Z,8.62
2022-12-09T11:04:52.541Z,8.61
2022-12-09T11:07:23.937Z,8.53
2022-12-09T11:10:04.204Z,8.57
2022-12-09T11:12:40.972Z,8.57
2022-12-09T11:15:28.704Z,8.67
2022-12-09T11:18:01.556Z,8.68
2022-12-09T11:20:31.843Z,8.82
2022-12-09T11:23:03.466Z,9.08
2022-12-09T11:25:33.843Z,8.75
2022-12-09T11:28:04.783Z,8.61
2022-12-09T11:30:36.627Z,8.37
2022-12-09T11:33:25.413Z,8.32
2022-12-09T11:38:40.446Z,8.69
2022-12-09T11:41:38.812Z,8.56
2022-12-09T11:44:22.103Z,8.57
2022-12-09T11:46:59.381Z,8.68
2022-12-09T11:49:30.864Z,8.68
2022-12-09T11:52:06.546Z,8.73
2022-12-09T11:54:41.677Z,8.82
2022-12-09T11:57:19.174Z,8.81
2022-12-09T11:59:52.115Z,8.83
2022-12-09T12:02:29.757Z,8.94
2022-12-09T12:05:04.287Z,8.91
2022-12-09T12:07:41.399Z,8.74
2022-12-09T12:10:20.796Z,8.66
2022-12-09T12:13:00.955Z,8.71
2022-12-09T12:15:36.151Z,8.63
2022-12-09T12:18:10.239Z,8.64
2022-12-09T12:20:50.418Z,8.82
2022-12-09T12:23:33.561Z,8.52
2022-12-09T12:26:07.997Z,8.43
2022-12-09T12:29:03.966Z,8.47
2022-12-09T12:31:53.350Z,8.24
2022-12-09T12:34:28.377Z,8.13
2022-12-09T12:37:08.050Z,8.20
2022-12-09T12:39:51.232Z,8.18
2022-12-09T12:42:29.038Z,8.05
2022-12-09T12:45:21.643Z,7.87
2022-12-09T12:47:58.516Z,8.13
2022-12-09T12:50:44.792Z,8.31
2022-12-09T12:53:26.453Z,8.32
2022-12-09T12:56:01.099Z,8.59
2022-12-09T12:58:42.878Z,8.65
2022-12-09T13:01:21.769Z,8.70
2022-12-09T13:03:58.829Z,8.60
2022-12-09T13:06:37.440Z,8.72
2022-12-09T13:09:13.932Z,8.57
2022-12-09T13:11:57.442Z,8.58
2022-12-09T13:14:33.051Z,8.41
2022-12-09T13:17:03.076Z,8.20
2022-12-09T13:19:38.572Z,8.14
2022-12-09T13:22:09.936Z,8.28
2022-12-09T13:24:44.309Z,8.03
2022-12-09T13:27:19.293Z,8.18
2022-12-09T13:29:58.554Z,8.25
2022-12-09T13:32:50.542Z,7.87
2022-12-09T13:35:26.495Z,7.81
2022-12-09T13:37:59.320Z,7.87
2022-12-09T13:40:32.595Z,8.02
2022-12-09T13:43:20.505Z,7.65
2022-12-09T13:45:52.577Z,7.74
2022-12-09T13:48:45.810Z,7.90
2022-12-09T13:51:14.747Z,7.88
2022-12-09T13:53:53.733Z,8.07
2022-12-09T13:56:30.953Z,8.19
2022-12-09T13:59:32.485Z,8.18
2022-12-09T14:02:05.178Z,8.13
2022-12-09T14:04:36.988Z,8.19
2022-12-09T14:07:17.409Z,8.23
2022-12-09T14:09:51.329Z,8.29
2022-12-09T14:12:57.974Z,8.19
2022-12-09T14:15:41.150Z,7.95
2022-12-09T14:18:32.875Z,7.95
2022-12-09T14:21:23.746Z,7.87
2022-12-09T14:24:29.013Z,7.63
2022-12-09T14:27:18.478Z,7.66
2022-12-09T14:29:50.889Z,7.73
2022-12-09T14:32:26.062Z,8.03
2022-12-09T14:35:24.522Z,7.93
2022-12-09T14:38:10.484Z,7.67
2022-12-09T14:40:53.761Z,7.62
2022-12-09T14:43:44.636Z,7.52
2022-12-09T14:46:23.670Z,7.54
2022-12-09T14:48:57.290Z,7.44
2022-12-09T14:51:29.312Z,7.40
2022-12-09T14:54:01.390Z,7.46
2022-12-09T14:56:31.640Z,7.51
2022-12-09T14:59:04.248Z,7.59
2022-12-09T15:01:47.434Z,7.59
2022-12-09T15:04:29.839Z,7.75
2022-12-09T15:07:09.160Z,7.70
2022-12-09T15:09:37.695Z,7.77
2022-12-09T15:12:11.437Z,7.73
2022-12-09T15:14:41.839Z,7.72
2022-12-09T15:17:14.731Z,7.75
2022-12-09T15:20:00.808Z,7.81
2022-12-09T15:22:32.614Z,7.75
2022-12-09T15:25:02.497Z,7.69
2022-12-09T15:27:31.524Z,7.64
2022-12-09T15:29:59.633Z,7.71
2022-12-09T15:32:29.942Z,7.65
2022-12-09T15:35:19.230Z,7.54
2022-12-09T15:37:48.252Z,7.64
2022-12-09T15:40:20.222Z,7.67
2022-12-09T15:42:52.182Z,7.69
2022-12-09T15:45:22.860Z,7.77
2022-12-09T15:47:55.626Z,7.68
2022-12-09T15:50:30.095Z,7.74
2022-12-09T15:53:03.780Z,7.76
2022-12-09T15:55:36.792Z,7.73
2022-12-09T15:58:08.105Z,7.67
2022-12-09T16:00:41.104Z,7.65
2022-12-09T16:03:09.499Z,7.75
2022-12-09T16:05:42.077Z,7.69
2022-12-09T16:08:11.743Z,7.68
2022-12-09T16:10:47.617Z,7.68
2022-12-09T16:13:17.609Z,7.65
2022-12-09T16:15:51.658Z,7.62
2022-12-09T16:18:23.383Z,7.60
2022-12-09T16:21:02.196Z,7.60
2022-12-09T16:23:30.786Z,7.54
2022-12-09T16:26:06.922Z,7.58
2022-12-09T16:28:36.556Z,7.46
2022-12-09T16:31:17.681Z,7.42
2022-12-09T16:33:49.712Z,7.60
2022-12-09T16:36:22.914Z,7.52
2022-12-09T16:39:28.937Z,7.44
2022-12-09T16:42:00.838Z,7.47
2022-12-09T16:44:34.122Z,7.40
2022-12-09T16:47:12.764Z,7.47
2022-12-09T16:49:42.321Z,7.45
2022-12-09T16:52:15.140Z,7.56
2022-12-09T16:54:45.351Z,7.74
2022-12-09T16:57:14.796Z,7.78
2022-12-09T16:59:43.444Z,7.91
2022-12-09T17:02:22.526Z,7.91
2022-12-09T17:04:53.265Z,7.83
2022-12-09T17:07:22.783Z,7.72
2022-12-09T17:09:51.028Z,7.62
2022-12-09T17:12:19.222Z,7.75
2022-12-09T17:14:47.360Z,7.67
2022-12-09T17:17:16.275Z,7.55
2022-12-09T17:19:46.263Z,7.64
2022-12-09T17:22:14.685Z,7.54
2022-12-09T17:24:47.032Z,7.55
2022-12-09T17:27:17.927Z,7.53
2022-12-09T17:29:46.743Z,7.45
2022-12-09T17:32:18.345Z,7.47
2022-12-09T17:34:47.429Z,7.55
2022-12-09T17:37:15.724Z,7.53
2022-12-09T17:39:46.309Z,7.59
2022-12-09T17:42:14.734Z,7.54
2022-12-09T17:44:43.633Z,7.56
2022-12-09T17:47:11.881Z,7.61
2022-12-09T17:49:42.449Z,7.56
2022-12-09T17:52:11.208Z,7.49
2022-12-09T17:54:39.318Z,7.59
2022-12-09T17:57:08.856Z,7.74
2022-12-09T17:59:38.746Z,7.75
2022-12-09T18:02:07.251Z,7.75
2022-12-09T18:04:35.448Z,7.80
2022-12-09T18:07:03.668Z,7.65
2022-12-09T18:09:32.684Z,7.73
2022-12-09T18:12:01.215Z,7.71
2022-12-09T18:14:31.069Z,7.69
2022-12-09T18:16:59.158Z,7.76
2022-12-09T18:19:27.337Z,7.75
2022-12-09T18:21:59.194Z,7.74
2022-12-09T18:24:27.386Z,7.60
2022-12-09T18:26:55.479Z,7.46
2022-12-09T18:29:24.157Z,7.47
2022-12-09T18:31:56.701Z,7.42
2022-12-09T18:34:25.336Z,7.34
2022-12-09T18:36:54.160Z,7.47
2022-12-09T18:39:23.458Z,7.52
2022-12-09T18:41:51.557Z,7.53
2022-12-09T18:44:19.721Z,7.67
2022-12-09T18:46:50.709Z,7.56
2022-12-09T18:49:21.651Z,7.40
2022-12-09T18:51:50.996Z,7.50
2022-12-09T18:54:21.207Z,7.35
2022-12-09T18:56:49.455Z,7.34
2022-12-09T18:59:18.217Z,7.44
2022-12-09T19:01:48.401Z,7.42
2022-12-09T19:04:22.578Z,7.43
2022-12-09T19:06:52.354Z,7.52
2022-12-09T19:09:22.316Z,7.55
2022-12-09T19:11:52.525Z,7.56
2022-12-09T19:14:22.660Z,7.53
2022-12-09T19:16:51.633Z,7.53
2022-12-09T19:19:24.286Z,7.42
2022-12-09T19:21:53.247Z,7.36
2022-12-09T19:24:24.216Z,7.35
2022-12-09T19:26:54.046Z,7.35
2022-12-09T19:29:24.626Z,7.46
2022-12-09T19:31:53.955Z,7.71
2022-12-09T19:34:25.078Z,7.50
2022-12-09T19:36:59.322Z,7.41
2022-12-09T19:39:31.411Z,7.46
2022-12-09T19:42:00.295Z,7.31
2022-12-09T19:45:01.086Z,7.46
2022-12-09T19:47:17.981Z,7.40
2022-12-09T19:49:47.566Z,7.46
2022-12-09T19:52:15.981Z,7.44
2022-12-09T19:54:44.213Z,7.46
2022-12-09T19:57:12.611Z,7.41
2022-12-09T19:59:40.977Z,7.41
2022-12-09T20:02:14.105Z,7.34
2022-12-09T20:04:50.772Z,7.41
2022-12-09T20:07:21.112Z,7.27
2022-12-09T20:09:49.861Z,7.24
2022-12-09T20:12:18.016Z,7.36
2022-12-09T20:14:46.140Z,7.36
2022-12-09T20:17:14.256Z,7.57
2022-12-09T20:19:42.559Z,7.42
2022-12-09T20:22:11.245Z,7.44
2022-12-09T20:24:41.798Z,7.27
2022-12-09T20:27:10.587Z,7.29
2022-12-09T20:29:38.719Z,7.48
2022-12-09T20:32:07.630Z,7.43
2022-12-09T20:34:38.858Z,7.39
2022-12-09T20:37:07.530Z,7.54
2022-12-09T20:39:35.753Z,7.45
2022-12-09T20:55:39.192Z,7.52
2022-12-09T20:58:07.290Z,7.55
2022-12-09T21:00:35.380Z,7.52
2022-12-09T21:03:03.386Z,7.56
2022-12-09T21:05:31.734Z,7.66
2022-12-09T21:08:00.272Z,7.59
2022-12-09T21:10:28.566Z,7.48
2022-12-09T21:12:58.391Z,7.49
2022-12-09T21:15:27.905Z,7.45
2022-12-09T21:17:56.586Z,7.45
2022-12-09T21:20:24.804Z,7.41
2022-12-09T21:23:24.857Z,7.71
2022-12-09T21:25:41.264Z,7.68
2022-12-09T21:28:10.806Z,7.68
2022-12-09T21:30:39.178Z,7.69
2022-12-09T21:33:07.484Z,7.63
2022-12-09T21:35:36.578Z,7.66
2022-12-09T21:38:04.799Z,7.48
2022-12-09T21:40:34.272Z,7.48
2022-12-09T21:43:02.441Z,7.65
2022-12-09T21:45:32.235Z,7.70
2022-12-09T21:48:00.428Z,7.72
2022-12-09T21:50:28.620Z,7.64
2022-12-09T21:52:56.742Z,7.52
2022-12-09T21:55:24.889Z,7.54
2022-12-09T21:57:53.003Z,7.42
2022-12-09T22:00:21.164Z,7.51
2022-12-09T22:02:54.500Z,7.41
2022-12-09T22:05:22.585Z,7.38
2022-12-09T22:07:51.103Z,7.35
2022-12-09T22:10:19.333Z,7.42
2022-12-09T22:12:47.551Z,7.31
2022-12-09T22:15:15.576Z,7.38
2022-12-09T22:17:43.660Z,7.38
2022-12-09T22:20:54.154Z,7.35
2022-12-09T22:23:01.860Z,7.31
2022-12-09T22:25:29.959Z,7.30
2022-12-09T22:27:58.525Z,7.27
2022-12-09T22:30:26.778Z,7.27
2022-12-09T22:32:54.803Z,7.31
2022-12-09T22:35:24.191Z,7.30
2022-12-09T22:37:52.169Z,7.37
2022-12-09T22:40:20.492Z,7.27
2022-12-09T22:42:48.481Z,7.33
2022-12-09T22:45:16.634Z,7.31
2022-12-09T22:47:44.714Z,7.47
2022-12-09T22:50:13.073Z,7.43
2022-12-09T22:52:42.566Z,7.42
2022-12-09T22:55:11.108Z,7.47
2022-12-09T22:57:39.511Z,7.31
2022-12-09T23:00:11.541Z,7.45
2022-12-09T23:02:40.016Z,7.37
2022-12-09T23:05:09.338Z,7.28
2022-12-09T23:07:37.412Z,7.28
2022-12-09T23:10:08.456Z,7.29
2022-12-09T23:12:36.669Z,7.33
2022-12-09T23:15:05.573Z,7.41
2022-12-09T23:17:33.898Z,7.43
2022-12-09T23:20:01.948Z,7.47
2022-12-09T23:22:30.169Z,7.53
2022-12-09T23:24:58.129Z,7.45
2022-12-09T23:27:27.572Z,7.38
2022-12-09T23:29:55.785Z,7.40
2022-12-09T23:32:23.977Z,7.40
2022-12-09T23:34:52.148Z,7.44
2022-12-09T23:37:20.124Z,7.45
2022-12-09T23:39:48.929Z,7.46
2022-12-09T23:42:16.875Z,7.40
2022-12-09T23:44:46.381Z,7.46
2022-12-09T23:47:14.571Z,7.41
2022-12-09T23:49:42.645Z,7.46
2022-12-09T23:52:11.091Z,7.56
2022-12-09T23:54:39.707Z,7.49
2022-12-09T23:57:07.982Z,7.38
2022-12-09T23:59:36.039Z,7.30
